createdAt,value
2018-01-23T00:01:31.703Z,97731.18
2018-01-23T00:04:02.883Z,97726.16
2018-01-23T00:06:33.986Z,97736.28
2018-01-23T00:09:05.132Z,97738.44
2018-01-23T00:11:36.357Z,97732.24
2018-01-23T00:14:07.422Z,97737.17
2018-01-23T00:16:38.984Z,97741.41
2018-01-23T00:19:10.028Z,97755.38
2018-01-23T00:21:41.113Z,97756.89
2018-01-23T00:24:12.169Z,97773.58
2018-01-23T00:26:43.284Z,97769.30
2018-01-23T00:29:14.326Z,97775.78
2018-01-23T00:31:45.641Z,97777.19
2018-01-23T00:34:16.683Z,97779.10
2018-01-23T00:36:47.799Z,97784.54
2018-01-23T00:39:18.876Z,97790.83
2018-01-23T00:41:49.999Z,97790.98
2018-01-23T00:44:21.037Z,97788.08
2018-01-23T00:46:52.072Z,97804.36
2018-01-23T00:49:23.860Z,97805.77
2018-01-23T00:51:54.939Z,97804.16
2018-01-23T00:54:26.062Z,97805.25
2018-01-23T00:56:57.136Z,97800.19
2018-01-23T00:59:28.222Z,97809.41
2018-01-23T01:01:59.285Z,97807.48
2018-01-23T01:04:30.402Z,97811.88
2018-01-23T01:07:01.532Z,97821.83
2018-01-23T01:09:32.577Z,97824.55
2018-01-23T01:12:03.692Z,97831.72
2018-01-23T01:14:34.757Z,97829.91
2018-01-23T01:17:06.045Z,97848.55
2018-01-23T01:19:37.093Z,97853.84
2018-01-23T01:22:08.213Z,97870.47
2018-01-23T01:24:40.007Z,97870.70
2018-01-23T01:27:11.094Z,97874.95
2018-01-23T01:29:42.176Z,97881.27
2018-01-23T01:32:13.238Z,97875.52
2018-01-23T01:34:44.332Z,97878.88
2018-01-23T01:37:15.429Z,97884.18
2018-01-23T01:39:46.581Z,97887.77
2018-01-23T01:42:17.624Z,97897.22
2018-01-23T01:44:48.716Z,97907.58
2018-01-23T01:47:19.777Z,97909.72
2018-01-23T01:49:50.831Z,97917.66
2018-01-23T01:52:21.877Z,97923.42
2018-01-23T01:54:59.933Z,97927.75
2018-01-23T01:57:31.012Z,97922.74
2018-01-23T02:00:02.105Z,97933.93
2018-01-23T02:02:33.203Z,97930.61
2018-01-23T02:05:04.263Z,97937.63
2018-01-23T02:07:35.347Z,97944.13
2018-01-23T02:10:06.411Z,97931.36
2018-01-23T02:12:37.462Z,97935.69
2018-01-23T02:15:08.525Z,97937.77
2018-01-23T02:17:39.631Z,97937.98
2018-01-23T02:20:10.723Z,97932.34
2018-01-23T02:22:41.814Z,97929.96
2018-01-23T02:25:12.876Z,97940.59
2018-01-23T02:27:43.977Z,97943.61
2018-01-23T02:30:15.836Z,97937.05
2018-01-23T02:32:46.931Z,97940.04
2018-01-23T02:35:18.002Z,97946.39
2018-01-23T02:37:49.104Z,97956.16
2018-01-23T02:40:20.194Z,97958.16
2018-01-23T02:42:51.268Z,97954.45
2018-01-23T02:45:22.360Z,97957.09
2018-01-23T02:47:53.402Z,97965.82
2018-01-23T02:50:24.495Z,97972.28
2018-01-23T02:52:55.529Z,97977.50
2018-01-23T02:55:26.619Z,97990.14
2018-01-23T02:57:57.729Z,97986.79
2018-01-23T03:00:28.820Z,97995.11
2018-01-23T03:02:59.911Z,97993.02
2018-01-23T03:05:30.930Z,97994.13
2018-01-23T03:08:02.028Z,98000.06
2018-01-23T03:10:33.093Z,97994.61
2018-01-23T03:13:04.192Z,98001.36
2018-01-23T03:15:35.291Z,97994.66
2018-01-23T03:18:06.344Z,97995.14
2018-01-23T03:20:37.414Z,97995.13
2018-01-23T03:23:08.512Z,97993.72
2018-01-23T03:25:39.623Z,97995.75
2018-01-23T03:28:10.665Z,98005.01
2018-01-23T03:30:41.715Z,98007.72
2018-01-23T03:33:12.782Z,98011.65
2018-01-23T03:35:43.816Z,98019.41
2018-01-23T03:38:14.897Z,98023.76
2018-01-23T03:40:45.961Z,98035.94
2018-01-23T03:43:17.050Z,98038.64
2018-01-23T03:45:48.126Z,98044.08
2018-01-23T03:48:20.366Z,98045.30
2018-01-23T03:50:51.918Z,98047.72
2018-01-23T03:53:23.022Z,98047.81
2018-01-23T03:55:54.051Z,98056.98
2018-01-23T03:58:25.115Z,98054.17
2018-01-23T04:00:56.155Z,98050.13
2018-01-23T04:03:27.256Z,98041.50
2018-01-23T04:05:58.353Z,98039.97
2018-01-23T04:08:29.453Z,98037.35
2018-01-23T04:11:00.493Z,98048.72
2018-01-23T04:13:31.564Z,98045.81
2018-01-23T04:16:02.622Z,98041.98
2018-01-23T04:18:33.699Z,98045.67
2018-01-23T04:21:04.778Z,98047.18
2018-01-23T04:23:35.893Z,98054.73
2018-01-23T04:26:06.978Z,98055.22
2018-01-23T04:28:38.079Z,98059.64
2018-01-23T04:31:09.109Z,98059.64
2018-01-23T04:33:40.236Z,98058.54
2018-01-23T04:36:11.308Z,98068.88
2018-01-23T04:38:42.375Z,98064.33
2018-01-23T04:41:13.451Z,98069.98
2018-01-23T04:43:44.553Z,98067.28
2018-01-23T04:46:15.632Z,98070.80
2018-01-23T04:48:46.823Z,98078.06
2018-01-23T04:51:17.932Z,98086.30
2018-01-23T04:53:49.126Z,98088.13
2018-01-23T04:56:20.148Z,98092.33
2018-01-23T04:58:51.235Z,98101.69
2018-01-23T05:01:22.364Z,98103.31
2018-01-23T05:03:53.419Z,98104.62
2018-01-23T05:06:24.499Z,98102.59
2018-01-23T05:08:55.569Z,98107.83
2018-01-23T05:11:26.631Z,98119.80
2018-01-23T05:13:57.755Z,98113.45
2018-01-23T05:16:28.802Z,98115.67
2018-01-23T05:18:59.924Z,98108.04
2018-01-23T05:21:31.033Z,98115.67
2018-01-23T05:24:02.110Z,98119.69
2018-01-23T05:26:33.205Z,98130.64
2018-01-23T05:29:04.276Z,98134.47
2018-01-23T05:31:35.382Z,98135.08
2018-01-23T05:34:06.403Z,98144.34
2018-01-23T05:36:38.637Z,98140.60
2018-01-23T05:39:09.730Z,98156.40
2018-01-23T05:41:40.797Z,98158.22
2018-01-23T05:44:11.826Z,98165.35
2018-01-23T05:46:42.899Z,98171.08
2018-01-23T05:49:13.984Z,98176.10
2018-01-23T05:51:45.056Z,98174.81
2018-01-23T05:54:16.142Z,98174.89
2018-01-23T05:56:47.304Z,98181.22
2018-01-23T05:59:18.368Z,98184.73
2018-01-23T06:01:49.485Z,98186.35
2018-01-23T06:04:20.529Z,98195.41
2018-01-23T06:06:51.609Z,98198.13
2018-01-23T06:09:22.925Z,98202.05
2018-01-23T06:11:53.980Z,98198.63
2018-01-23T06:14:25.104Z,98210.70
2018-01-23T06:16:56.132Z,98215.22
2018-01-23T06:19:27.219Z,98217.15
2018-01-23T06:21:58.360Z,98223.37
2018-01-23T06:24:29.428Z,98223.67
2018-01-23T06:27:00.506Z,98227.89
2018-01-23T06:29:31.579Z,98231.31
2018-01-23T06:32:02.655Z,98239.16
2018-01-23T06:34:33.775Z,98240.87
2018-01-23T06:37:04.883Z,98255.67
2018-01-23T06:39:35.951Z,98259.20
2018-01-23T06:42:07.019Z,98259.29
2018-01-23T06:44:38.073Z,98258.88
2018-01-23T06:47:09.184Z,98266.72
2018-01-23T06:49:40.273Z,98272.48
2018-01-23T06:52:11.332Z,98277.80
2018-01-23T06:54:42.385Z,98285.05
2018-01-23T06:57:13.470Z,98283.22
2018-01-23T06:59:44.748Z,98287.36
2018-01-23T07:02:15.800Z,98298.53
2018-01-23T07:04:46.839Z,98300.64
2018-01-23T07:07:17.941Z,98304.78
2018-01-23T07:09:48.993Z,98304.67
2018-01-23T07:12:20.055Z,98312.23
2018-01-23T07:14:51.130Z,98313.73
2018-01-23T07:17:22.245Z,98313.72
2018-01-23T07:19:53.315Z,98321.88
2018-01-23T07:22:24.391Z,98322.47
2018-01-23T07:24:55.463Z,98318.06
2018-01-23T07:27:26.543Z,98324.99
2018-01-23T07:29:57.643Z,98328.41
2018-01-23T07:32:28.741Z,98337.58
2018-01-23T07:34:59.792Z,98347.53
2018-01-23T07:37:30.830Z,98352.34
2018-01-23T07:42:42.889Z,98358.90
2018-01-23T07:45:13.959Z,98364.46
2018-01-23T07:47:45.051Z,98373.33
2018-01-23T07:50:16.138Z,98369.20
2018-01-23T07:52:47.224Z,98370.71
2018-01-23T07:55:18.317Z,98380.88
2018-01-23T07:57:49.413Z,98385.31
2018-01-23T08:00:20.520Z,98379.98
2018-01-23T08:02:51.614Z,98383.72
2018-01-23T08:05:22.692Z,98388.95
2018-01-23T08:07:53.734Z,98385.70
2018-01-23T08:10:24.843Z,98388.43
2018-01-23T08:12:55.899Z,98381.28
2018-01-23T08:15:27.009Z,98394.17
2018-01-23T08:17:58.118Z,98398.81
2018-01-23T08:20:29.891Z,98402.64
2018-01-23T08:23:00.988Z,98403.94
2018-01-23T08:25:32.108Z,98410.20
2018-01-23T08:28:03.158Z,98415.52
2018-01-23T08:30:34.306Z,98421.17
2018-01-23T08:33:05.353Z,98424.58
2018-01-23T08:35:36.398Z,98425.70
2018-01-23T08:38:07.468Z,98423.67
2018-01-23T08:40:38.564Z,98429.92
2018-01-23T08:43:09.635Z,98427.91
2018-01-23T08:45:40.689Z,98436.28
2018-01-23T08:48:11.739Z,98438.59
2018-01-23T08:50:42.830Z,98436.28
2018-01-23T08:53:13.939Z,98432.05
2018-01-23T08:55:45.039Z,98450.88
2018-01-23T08:58:16.134Z,98452.87
2018-01-23T09:00:47.234Z,98459.94
2018-01-23T09:03:18.314Z,98458.02
2018-01-23T09:05:49.398Z,98463.25
2018-01-23T09:08:20.495Z,98465.05
2018-01-23T09:10:51.574Z,98472.67
2018-01-23T09:13:22.616Z,98471.91
2018-01-23T09:15:53.702Z,98476.20
2018-01-23T09:18:24.833Z,98478.45
2018-01-23T09:20:55.893Z,98485.97
2018-01-23T09:23:26.968Z,98484.52
2018-01-23T09:25:58.037Z,98495.76
2018-01-23T09:28:29.105Z,98488.86
2018-01-23T09:31:00.213Z,98500.27
2018-01-23T09:33:31.325Z,98502.75
2018-01-23T09:36:02.390Z,98499.44
2018-01-23T09:38:33.489Z,98507.73
2018-01-23T09:41:04.594Z,98513.14
2018-01-23T09:43:35.671Z,98511.52
2018-01-23T09:46:06.749Z,98512.97
2018-01-23T09:48:37.810Z,98509.84
2018-01-23T09:51:08.911Z,98512.64
2018-01-23T09:53:40.010Z,98520.52
2018-01-23T09:56:11.077Z,98514.05
2018-01-23T09:58:42.634Z,98520.52
2018-01-23T10:01:13.677Z,98527.20
2018-01-23T10:03:45.084Z,98522.58
2018-01-23T10:06:16.217Z,98534.52
2018-01-23T10:08:47.332Z,98527.59
2018-01-23T10:11:18.396Z,98532.50
2018-01-23T10:13:49.448Z,98529.91
2018-01-23T10:16:20.544Z,98519.61
2018-01-23T10:18:51.602Z,98519.12
2018-01-23T10:21:22.806Z,98512.98
2018-01-23T10:23:53.931Z,98521.15
2018-01-23T10:26:24.971Z,98522.89
2018-01-23T10:28:56.079Z,98519.89
2018-01-23T10:31:27.132Z,98521.23
2018-01-23T10:33:58.176Z,98525.56
2018-01-23T10:36:29.437Z,98529.84
2018-01-23T10:39:00.507Z,98518.88
2018-01-23T10:41:31.569Z,98517.94
2018-01-23T10:44:02.660Z,98518.87
2018-01-23T10:46:33.746Z,98517.34
2018-01-23T10:49:05.059Z,98518.84
2018-01-23T10:51:36.156Z,98514.58
2018-01-23T10:54:07.234Z,98516.00
2018-01-23T10:56:38.317Z,98517.08
2018-01-23T10:59:09.374Z,98518.67
2018-01-23T11:01:40.515Z,98525.62
2018-01-23T11:04:11.610Z,98516.73
2018-01-23T11:06:42.727Z,98517.42
2018-01-23T11:09:13.791Z,98512.64
2018-01-23T11:11:44.963Z,98511.13
2018-01-23T11:14:16.013Z,98514.60
2018-01-23T11:16:47.126Z,98514.19
2018-01-23T11:19:18.239Z,98516.69
2018-01-23T11:21:49.301Z,98511.91
2018-01-23T11:24:20.540Z,98520.34
2018-01-23T11:26:52.306Z,98521.80
2018-01-23T11:29:23.329Z,98517.55
2018-01-23T11:31:54.394Z,98517.00
2018-01-23T11:34:25.434Z,98515.16
2018-01-23T11:36:56.540Z,98513.34
2018-01-23T11:39:28.388Z,98511.16
2018-01-23T11:41:59.468Z,98509.91
2018-01-23T11:44:30.516Z,98511.56
2018-01-23T11:47:01.627Z,98511.67
2018-01-23T11:49:32.690Z,98519.78
2018-01-23T11:52:03.812Z,98509.94
2018-01-23T11:54:34.881Z,98508.87
2018-01-23T11:57:05.941Z,98515.91
2018-01-23T11:59:36.994Z,98507.73
2018-01-23T12:02:08.076Z,98511.31
2018-01-23T12:04:40.443Z,98509.73
2018-01-23T12:07:11.528Z,98511.93
2018-01-23T12:09:42.788Z,98511.37
2018-01-23T12:12:13.838Z,98502.05
2018-01-23T12:14:45.105Z,98499.84
2018-01-23T12:17:16.185Z,98501.29
2018-01-23T12:19:47.305Z,98503.36
2018-01-23T12:22:18.378Z,98510.07
2018-01-23T12:24:49.441Z,98507.78
2018-01-23T12:27:20.717Z,98501.30
2018-01-23T12:29:51.754Z,98498.98
2018-01-23T12:32:22.902Z,98490.86
2018-01-23T12:34:53.980Z,98493.15
2018-01-23T12:37:32.142Z,98493.15
2018-01-23T12:40:03.260Z,98489.47
2018-01-23T12:42:34.650Z,98486.16
2018-01-23T12:45:05.727Z,98484.25
2018-01-23T12:47:36.771Z,98490.13
2018-01-23T12:50:07.879Z,98486.59
2018-01-23T12:52:38.962Z,98487.66
2018-01-23T12:55:10.062Z,98490.54
2018-01-23T12:57:41.163Z,98490.11
2018-01-23T13:00:12.203Z,98487.59
2018-01-23T13:02:43.305Z,98488.49
2018-01-23T13:05:14.393Z,98491.59
2018-01-23T13:07:45.560Z,98491.70
2018-01-23T13:10:16.646Z,98493.63
2018-01-23T13:12:47.898Z,98484.16
2018-01-23T13:15:18.991Z,98485.57
2018-01-23T13:17:50.057Z,98484.69
2018-01-23T13:20:21.156Z,98483.30
2018-01-23T13:22:52.220Z,98484.63
2018-01-23T13:25:23.324Z,98480.50
2018-01-23T13:27:54.427Z,98472.12
2018-01-23T13:30:25.486Z,98472.57
2018-01-23T13:32:56.577Z,98465.84
2018-01-23T13:35:27.648Z,98467.71
2018-01-23T13:37:58.697Z,98475.17
2018-01-23T13:40:29.763Z,98468.87
2018-01-23T13:43:00.845Z,98471.90
2018-01-23T13:45:31.944Z,98471.27
2018-01-23T13:48:03.027Z,98477.04
2018-01-23T13:50:34.127Z,98480.59
2018-01-23T13:53:05.249Z,98475.45
2018-01-23T13:55:36.336Z,98476.05
2018-01-23T13:58:07.390Z,98478.23
2018-01-23T14:00:38.463Z,98480.76
2018-01-23T14:03:09.539Z,98482.18
2018-01-23T14:05:40.578Z,98482.17
2018-01-23T14:08:11.697Z,98490.58
2018-01-23T14:10:42.786Z,98487.14
2018-01-23T14:13:13.896Z,98486.80
2018-01-23T14:15:45.010Z,98494.63
2018-01-23T14:18:16.157Z,98493.98
2018-01-23T14:20:47.244Z,98499.25
2018-01-23T14:23:18.294Z,98500.48
2018-01-23T14:25:49.371Z,98501.21
2018-01-23T14:28:20.441Z,98503.47
2018-01-23T14:30:51.538Z,98498.09
2018-01-23T14:33:22.604Z,98489.47
2018-01-23T14:35:53.676Z,98491.42
2018-01-23T14:38:24.752Z,98493.44
2018-01-23T14:40:55.840Z,98500.48
2018-01-23T14:43:26.910Z,98503.73
2018-01-23T14:45:57.990Z,98502.95
2018-01-23T14:48:29.049Z,98503.45
2018-01-23T14:51:00.164Z,98497.52
2018-01-23T14:53:31.243Z,98500.13
2018-01-23T14:56:02.357Z,98511.98
2018-01-23T14:58:33.427Z,98509.41
2018-01-23T15:01:04.468Z,98510.94
2018-01-23T15:03:35.595Z,98511.78
2018-01-23T15:06:06.643Z,98508.75
2018-01-23T15:08:37.719Z,98512.70
2018-01-23T15:11:08.801Z,98514.42
2018-01-23T15:13:39.871Z,98509.77
2018-01-23T15:16:10.981Z,98501.37
2018-01-23T15:18:42.072Z,98497.68
2018-01-23T15:21:13.287Z,98499.66
2018-01-23T15:23:44.332Z,98501.03
2018-01-23T15:26:15.395Z,98503.06
2018-01-23T15:28:46.520Z,98503.58
2018-01-23T15:31:17.601Z,98502.45
2018-01-23T15:33:48.648Z,98504.28
2018-01-23T15:36:19.778Z,98504.08
2018-01-23T15:38:50.824Z,98505.03
2018-01-23T15:41:21.900Z,98501.20
2018-01-23T15:43:52.998Z,98508.43
2018-01-23T15:46:24.066Z,98510.88
2018-01-23T15:48:55.154Z,98509.77
2018-01-23T15:51:26.269Z,98517.45
2018-01-23T15:53:57.367Z,98513.75
2018-01-23T15:56:28.452Z,98514.36
2018-01-23T15:58:59.562Z,98506.22
2018-01-23T16:01:30.598Z,98514.52
2018-01-23T16:04:01.722Z,98518.39
2018-01-23T16:06:32.841Z,98516.28
2018-01-23T16:09:03.989Z,98518.70
2018-01-23T16:11:35.041Z,98516.57
2018-01-23T16:14:06.097Z,98516.63
2018-01-23T16:16:37.201Z,98523.50
2018-01-23T16:19:08.316Z,98519.75
2018-01-23T16:21:40.138Z,98510.30
2018-01-23T16:24:11.200Z,98512.25
2018-01-23T16:26:42.534Z,98515.79
2018-01-23T16:29:13.621Z,98516.80
2018-01-23T16:31:44.693Z,98512.42
2018-01-23T16:34:15.750Z,98509.98
2018-01-23T16:36:46.831Z,98516.72
2018-01-23T16:39:17.902Z,98522.95
2018-01-23T16:41:49.006Z,98528.70
2018-01-23T16:44:20.070Z,98530.83
2018-01-23T16:46:51.186Z,98523.34
2018-01-23T16:49:22.265Z,98525.36
2018-01-23T16:51:53.336Z,98524.56
2018-01-23T16:54:24.407Z,98529.76
2018-01-23T16:56:55.522Z,98528.48
2018-01-23T16:59:26.686Z,98532.72
2018-01-23T17:01:57.819Z,98531.91
2018-01-23T17:04:28.897Z,98532.52
2018-01-23T17:06:59.965Z,98539.19
2018-01-23T17:09:31.097Z,98534.34
2018-01-23T17:12:02.130Z,98534.04
2018-01-23T17:14:33.190Z,98530.41
2018-01-23T17:17:04.242Z,98530.53
2018-01-23T17:19:35.344Z,98528.92
2018-01-23T17:22:06.416Z,98533.27
2018-01-23T17:24:37.536Z,98535.99
2018-01-23T17:27:08.680Z,98536.03
2018-01-23T17:29:39.772Z,98533.41
2018-01-23T17:32:10.881Z,98531.28
2018-01-23T17:34:41.918Z,98533.50
2018-01-23T17:37:12.993Z,98531.48
2018-01-23T17:39:44.078Z,98527.17
2018-01-23T17:42:15.160Z,98530.51
2018-01-23T17:44:46.291Z,98533.81
2018-01-23T17:47:17.371Z,98526.53
2018-01-23T17:49:48.524Z,98527.34
2018-01-23T17:52:19.610Z,98521.38
2018-01-23T17:54:50.724Z,98529.13
2018-01-23T17:57:21.920Z,98524.84
2018-01-23T17:59:52.990Z,98523.43
2018-01-23T18:02:24.093Z,98522.76
2018-01-23T18:04:55.144Z,98528.31
2018-01-23T18:07:26.270Z,98524.52
2018-01-23T18:09:57.393Z,98523.77
2018-01-23T18:12:28.478Z,98525.66
2018-01-23T18:14:59.547Z,98525.14
2018-01-23T18:17:30.648Z,98522.31
2018-01-23T18:20:01.744Z,98524.75
2018-01-23T18:22:32.828Z,98529.49
2018-01-23T18:25:03.916Z,98527.27
2018-01-23T18:27:34.996Z,98526.77
2018-01-23T18:30:06.117Z,98525.78
2018-01-23T18:32:38.179Z,98523.84
2018-01-23T18:35:09.320Z,98524.95
2018-01-23T18:37:41.016Z,98527.81
2018-01-23T18:40:12.095Z,98525.19
2018-01-23T18:42:43.166Z,98523.27
2018-01-23T18:45:14.259Z,98519.46
2018-01-23T18:47:45.352Z,98517.04
2018-01-23T18:50:16.474Z,98520.20
2018-01-23T18:52:47.583Z,98521.41
2018-01-23T18:55:18.680Z,98521.75
2018-01-23T18:57:49.820Z,98528.22
2018-01-23T19:00:20.928Z,98519.77
2018-01-23T19:02:52.044Z,98524.01
2018-01-23T19:05:23.138Z,98524.41
2018-01-23T19:07:54.218Z,98527.23
2018-01-23T19:10:25.311Z,98528.86
2018-01-23T19:12:56.343Z,98521.52
2018-01-23T19:15:27.473Z,98525.72
2018-01-23T19:17:58.574Z,98524.11
2018-01-23T19:20:29.695Z,98522.66
2018-01-23T19:23:00.846Z,98516.41
2018-01-23T19:25:32.445Z,98516.30
2018-01-23T19:28:03.567Z,98512.77
2018-01-23T19:30:34.650Z,98513.30
2018-01-23T19:33:05.797Z,98506.16
2018-01-23T19:35:36.882Z,98513.03
2018-01-23T19:38:08.220Z,98506.19
2018-01-23T19:40:39.356Z,98507.81
2018-01-23T19:43:10.423Z,98502.13
2018-01-23T19:45:41.518Z,98501.02
2018-01-23T19:48:12.684Z,98501.95
2018-01-23T19:50:43.740Z,98501.83
2018-01-23T19:53:14.857Z,98503.34
2018-01-23T19:55:47.024Z,98505.13
2018-01-23T19:58:18.129Z,98502.39
2018-01-23T20:00:49.239Z,98506.53
2018-01-23T20:03:20.397Z,98504.72
2018-01-23T20:05:51.556Z,98504.55
2018-01-23T20:08:22.677Z,98499.36
2018-01-23T20:10:53.769Z,98499.66
2018-01-23T20:13:24.977Z,98504.78
2018-01-23T20:15:56.053Z,98511.05
2018-01-23T20:18:27.175Z,98514.58
2018-01-23T20:20:58.256Z,98516.16
2018-01-23T20:23:29.526Z,98521.25
2018-01-23T20:26:00.619Z,98524.38
2018-01-23T20:28:31.708Z,98524.58
2018-01-23T20:31:02.823Z,98531.85
2018-01-23T20:33:33.910Z,98535.69
2018-01-23T20:36:05.089Z,98530.64
2018-01-23T20:38:36.201Z,98531.22
2018-01-23T20:41:07.304Z,98535.96
2018-01-23T20:43:38.439Z,98541.69
2018-01-23T20:46:09.509Z,98534.48
2018-01-23T20:48:40.585Z,98538.22
2018-01-23T20:51:11.672Z,98550.38
2018-01-23T20:53:42.796Z,98539.36
2018-01-23T20:56:13.863Z,98545.22
2018-01-23T20:58:45.069Z,98539.77
2018-01-23T21:01:16.210Z,98542.70
2018-01-23T21:03:47.320Z,98537.34
2018-01-23T21:06:18.403Z,98533.41
2018-01-23T21:08:49.519Z,98533.10
2018-01-23T21:11:20.596Z,98526.97
2018-01-23T21:13:51.708Z,98530.44
2018-01-23T21:16:22.781Z,98525.80
2018-01-23T21:18:53.897Z,98521.75
2018-01-23T21:21:25.014Z,98519.91
2018-01-23T21:23:56.105Z,98507.71
2018-01-23T21:26:27.255Z,98514.18
2018-01-23T21:28:58.297Z,98512.90
2018-01-23T21:31:29.399Z,98504.62
2018-01-23T21:34:00.505Z,98499.97
2018-01-23T21:36:31.717Z,98498.96
2018-01-23T21:39:02.810Z,98498.79
2018-01-23T21:41:33.956Z,98502.42
2018-01-23T21:44:04.989Z,98504.95
2018-01-23T21:46:36.047Z,98503.44
2018-01-23T21:49:07.223Z,98503.03
2018-01-23T21:51:38.284Z,98499.53
2018-01-23T21:54:09.355Z,98498.72
2018-01-23T21:56:40.461Z,98501.55
2018-01-23T21:59:11.559Z,98500.00
2018-01-23T22:01:42.802Z,98492.43
2018-01-23T22:04:13.863Z,98495.36
2018-01-23T22:06:44.965Z,98499.02
2018-01-23T22:09:16.074Z,98496.12
2018-01-23T22:11:47.333Z,98489.19
2018-01-23T22:14:18.407Z,98497.11
2018-01-23T22:16:49.543Z,98502.33
2018-01-23T22:19:20.668Z,98505.78
2018-01-23T22:21:51.762Z,98508.11
2018-01-23T22:24:22.819Z,98506.31
2018-01-23T22:26:53.864Z,98509.25
2018-01-23T22:29:24.998Z,98516.69
2018-01-23T22:31:56.066Z,98528.88
2018-01-23T22:34:34.072Z,98536.73
2018-01-23T22:37:05.185Z,98534.30
2018-01-23T22:39:36.238Z,98537.02
2018-01-23T22:42:07.314Z,98529.44
2018-01-23T22:44:38.416Z,98529.45
2018-01-23T22:47:09.583Z,98525.70
2018-01-23T22:49:40.696Z,98514.59
2018-01-23T22:52:11.763Z,98515.89
2018-01-23T22:54:42.848Z,98524.82
2018-01-23T22:57:13.913Z,98524.30
2018-01-23T22:59:44.926Z,98529.91
2018-01-23T23:02:16.024Z,98536.33
2018-01-23T23:04:47.060Z,98533.12
2018-01-23T23:07:18.182Z,98539.50
2018-01-23T23:09:49.524Z,98540.66
2018-01-23T23:12:20.652Z,98538.88
2018-01-23T23:14:51.691Z,98535.91
2018-01-23T23:17:22.764Z,98543.27
2018-01-23T23:19:53.827Z,98535.83
2018-01-23T23:22:24.920Z,98539.30
2018-01-23T23:24:55.997Z,98537.37
2018-01-23T23:27:27.092Z,98537.36
2018-01-23T23:29:58.222Z,98539.39
2018-01-23T23:32:29.299Z,98541.10
2018-01-23T23:35:00.390Z,98546.66
2018-01-23T23:37:31.490Z,98548.98
2018-01-23T23:40:02.606Z,98558.84
2018-01-23T23:42:33.690Z,98543.00
2018-01-23T23:45:04.788Z,98526.45
2018-01-23T23:47:35.828Z,98531.91
2018-01-23T23:50:06.950Z,98530.13
2018-01-23T23:52:38.093Z,98525.58
2018-01-23T23:55:09.268Z,98534.16
2018-01-23T23:57:40.810Z,98538.39
